Ana Sayfa
METAR-TAF:

METAR-TAF

Havaalanları :

Chautauqua County/Dunkirk Airport

Dunkirk, New York, Amerika Birleşik Devletleri

Enlem: 42-29-35N, Boylam: 079-16-33W, yükseklik: 211 m

Güncel hava durumu gözlemi

Rapor saat 20:53 UTC de 21 dakika önce yapıldı.
Rüzgar değişken yönden 5 kt
Sıcaklık 27°C
Nem 70%
Basınç 1012 hPa
Görüş mesafesi: 16.1 km
1600 ft yükseklikte az bulutlu

METAR: KDKK 172053Z AUTO VRB05KT 10SM FEW016 27/21 A2987 RMK AO2 SLP111 60001 T02670211 58006 $

Saat: 17:14 (21:14 UTC)


TAF: eksik

4.000'den fazla havaalanı için hava durumu gözlemleri ve tahminleri (METAR ve TAF raporları).

Kullanılabilir istasyonlar harita üzerinde sarı ve kırmızı noktalarla gösterilir.

İstasyonun adını görmek için fareyi noktanın üzerinde gezdirin.

Sonrasında hava gözlem ve tahminlerini görmek için tıklayın.

Haritayı değiştirmek için: yaklaştırmak için siyah artı işaretli yeşil düğmeye ve uzaklaştırmak için de eksi işaretli düğmeye hızla tıklayın; bitişik haritalar için yeşil okları kullanın.


METAR-TAF: